sensor_id;sensor_type;location;lat;lon;timestamp;temperature;humidity
8957;DHT22;4513;50.054;8.230;2023-07-16T00:01:24;20.20;99.90
8957;DHT22;4513;50.054;8.230;2023-07-16T00:03:51;20.20;99.90
8957;DHT22;4513;50.054;8.230;2023-07-16T00:06:18;20.10;99.90
8957;DHT22;4513;50.054;8.230;2023-07-16T00:08:45;20.10;99.90
8957;DHT22;4513;50.054;8.230;2023-07-16T00:11:12;20.10;99.90
8957;DHT22;4513;50.054;8.230;2023-07-16T00:13:39;20.00;99.90
8957;DHT22;4513;50.054;8.230;2023-07-16T00:16:12;20.00;99.90
8957;DHT22;4513;50.054;8.230;2023-07-16T00:18:40;19.90;99.90
8957;DHT22;4513;50.054;8.230;2023-07-16T00:21:11;19.90;99.90
8957;DHT22;4513;50.054;8.230;2023-07-16T00:23:41;19.90;99.90
8957;DHT22;4513;50.054;8.230;2023-07-16T00:26:08;19.90;99.90
8957;DHT22;4513;50.054;8.230;2023-07-16T00:28:36;19.90;99.90
8957;DHT22;4513;50.054;8.230;2023-07-16T00:31:07;19.90;99.90
8957;DHT22;4513;50.054;8.230;2023-07-16T00:33:37;19.90;99.90
8957;DHT22;4513;50.054;8.230;2023-07-16T00:36:06;19.80;99.90
8957;DHT22;4513;50.054;8.230;2023-07-16T00:38:33;19.80;99.90
8957;DHT22;4513;50.054;8.230;2023-07-16T00:41:02;19.80;99.90
8957;DHT22;4513;50.054;8.230;2023-07-16T00:43:30;19.80;99.90
8957;DHT22;4513;50.054;8.230;2023-07-16T00:45:57;19.80;99.90
8957;DHT22;4513;50.054;8.230;2023-07-16T00:48:25;19.80;99.90
8957;DHT22;4513;50.054;8.230;2023-07-16T00:50:54;19.70;99.90
8957;DHT22;4513;50.054;8.230;2023-07-16T00:53:22;19.70;99.90
8957;DHT22;4513;50.054;8.230;2023-07-16T00:55:49;19.70;99.90
8957;DHT22;4513;50.054;8.230;2023-07-16T00:58:17;19.60;99.90
8957;DHT22;4513;50.054;8.230;2023-07-16T01:00:46;19.60;99.90
8957;DHT22;4513;50.054;8.230;2023-07-16T01:03:14;19.60;99.90
8957;DHT22;4513;50.054;8.230;2023-07-16T01:05:47;19.50;99.90
8957;DHT22;4513;50.054;8.230;2023-07-16T01:08:21;19.50;99.90
8957;DHT22;4513;50.054;8.230;2023-07-16T01:10:53;19.60;99.90
8957;DHT22;4513;50.054;8.230;2023-07-16T01:13:21;19.60;99.90
8957;DHT22;4513;50.054;8.230;2023-07-16T01:15:48;19.50;99.90
8957;DHT22;4513;50.054;8.230;2023-07-16T01:18:15;19.50;99.90
8957;DHT22;4513;50.054;8.230;2023-07-16T01:20:41;19.40;99.90
8957;DHT22;4513;50.054;8.230;2023-07-16T01:23:29;19.50;99.90
8957;DHT22;4513;50.054;8.230;2023-07-16T01:26:08;19.50;99.90
8957;DHT22;4513;50.054;8.230;2023-07-16T01:31:49;19.40;99.90
8957;DHT22;4513;50.054;8.230;2023-07-16T01:34:17;19.30;99.90
8957;DHT22;4513;50.054;8.230;2023-07-16T01:36:44;19.20;99.90
8957;DHT22;4513;50.054;8.230;2023-07-16T01:39:11;19.10;99.90
8957;DHT22;4513;50.054;8.230;2023-07-16T01:41:38;19.10;99.90
8957;DHT22;4513;50.054;8.230;2023-07-16T01:44:05;19.10;99.90
8957;DHT22;4513;50.054;8.230;2023-07-16T01:46:32;19.00;99.90
8957;DHT22;4513;50.054;8.230;2023-07-16T01:49:00;19.00;99.90
8957;DHT22;4513;50.054;8.230;2023-07-16T01:51:27;18.90;99.90
8957;DHT22;4513;50.054;8.230;2023-07-16T01:53:53;18.90;99.90
8957;DHT22;4513;50.054;8.230;2023-07-16T01:56:20;18.80;99.90
8957;DHT22;4513;50.054;8.230;2023-07-16T01:58:47;18.80;99.90
8957;DHT22;4513;50.054;8.230;2023-07-16T02:01:14;18.80;99.90
8957;DHT22;4513;50.054;8.230;2023-07-16T02:03:40;18.80;99.90
8957;DHT22;4513;50.054;8.230;2023-07-16T02:06:09;18.70;99.90
8957;DHT22;4513;50.054;8.230;2023-07-16T02:08:35;18.70;99.90
8957;DHT22;4513;50.054;8.230;2023-07-16T02:11:02;18.60;99.90
8957;DHT22;4513;50.054;8.230;2023-07-16T02:13:29;18.60;99.90
8957;DHT22;4513;50.054;8.230;2023-07-16T02:15:56;18.60;99.90
8957;DHT22;4513;50.054;8.230;2023-07-16T02:18:22;18.60;99.90
8957;DHT22;4513;50.054;8.230;2023-07-16T02:20:49;18.60;99.90
8957;DHT22;4513;50.054;8.230;2023-07-16T02:23:17;18.60;99.90
8957;DHT22;4513;50.054;8.230;2023-07-16T02:25:44;18.50;99.90
8957;DHT22;4513;50.054;8.230;2023-07-16T02:28:11;18.50;99.90
8957;DHT22;4513;50.054;8.230;2023-07-16T02:30:39;18.40;99.90
8957;DHT22;4513;50.054;8.230;2023-07-16T02:33:06;18.30;99.90
8957;DHT22;4513;50.054;8.230;2023-07-16T02:35:33;18.30;99.90
8957;DHT22;4513;50.054;8.230;2023-07-16T02:38:00;18.30;99.90
8957;DHT22;4513;50.054;8.230;2023-07-16T02:40:28;18.20;99.90
8957;DHT22;4513;50.054;8.230;2023-07-16T02:42:55;18.20;99.90
8957;DHT22;4513;50.054;8.230;2023-07-16T02:45:22;18.20;99.90
8957;DHT22;4513;50.054;8.230;2023-07-16T02:47:48;18.20;99.90
8957;DHT22;4513;50.054;8.230;2023-07-16T02:50:15;18.30;99.90
8957;DHT22;4513;50.054;8.230;2023-07-16T02:52:42;18.20;99.90
8957;DHT22;4513;50.054;8.230;2023-07-16T02:55:09;18.20;99.90
8957;DHT22;4513;50.054;8.230;2023-07-16T02:57:37;18.20;99.90
8957;DHT22;4513;50.054;8.230;2023-07-16T03:00:05;18.20;99.90
8957;DHT22;4513;50.054;8.230;2023-07-16T03:02:32;18.10;99.90
8957;DHT22;4513;50.054;8.230;2023-07-16T03:04:59;18.10;99.90
8957;DHT22;4513;50.054;8.230;2023-07-16T03:07:25;18.10;99.90
8957;DHT22;4513;50.054;8.230;2023-07-16T03:09:52;18.00;99.90
8957;DHT22;4513;50.054;8.230;2023-07-16T03:12:19;18.00;99.90
8957;DHT22;4513;50.054;8.230;2023-07-16T03:14:47;18.00;99.90
8957;DHT22;4513;50.054;8.230;2023-07-16T03:17:16;18.00;99.90
8957;DHT22;4513;50.054;8.230;2023-07-16T03:19:42;18.00;99.90
8957;DHT22;4513;50.054;8.230;2023-07-16T03:22:09;17.90;99.90
8957;DHT22;4513;50.054;8.230;2023-07-16T03:24:36;17.80;99.90
8957;DHT22;4513;50.054;8.230;2023-07-16T03:27:03;17.90;99.90
8957;DHT22;4513;50.054;8.230;2023-07-16T03:29:30;17.90;99.90
8957;DHT22;4513;50.054;8.230;2023-07-16T03:31:58;17.90;99.90
8957;DHT22;4513;50.054;8.230;2023-07-16T03:34:25;17.80;99.90
8957;DHT22;4513;50.054;8.230;2023-07-16T03:36:52;17.80;99.90
8957;DHT22;4513;50.054;8.230;2023-07-16T03:39:19;17.80;99.90
8957;DHT22;4513;50.054;8.230;2023-07-16T03:41:45;17.80;99.90
8957;DHT22;4513;50.054;8.230;2023-07-16T03:44:12;17.70;99.90
8957;DHT22;4513;50.054;8.230;2023-07-16T03:46:39;17.70;99.90
8957;DHT22;4513;50.054;8.230;2023-07-16T03:49:08;17.60;99.90
8957;DHT22;4513;50.054;8.230;2023-07-16T03:51:35;17.50;99.90
8957;DHT22;4513;50.054;8.230;2023-07-16T03:54:01;17.50;99.90
8957;DHT22;4513;50.054;8.230;2023-07-16T03:56:28;17.40;99.90
8957;DHT22;4513;50.054;8.230;2023-07-16T03:58:55;17.30;99.90
8957;DHT22;4513;50.054;8.230;2023-07-16T04:01:22;17.30;99.90
8957;DHT22;4513;50.054;8.230;2023-07-16T04:03:48;17.40;99.90
8957;DHT22;4513;50.054;8.230;2023-07-16T04:06:16;17.30;99.90
8957;DHT22;4513;50.054;8.230;2023-07-16T04:08:43;17.20;99.90
8957;DHT22;4513;50.054;8.230;2023-07-16T04:11:10;17.10;99.90
8957;DHT22;4513;50.054;8.230;2023-07-16T04:13:37;17.00;99.90
8957;DHT22;4513;50.054;8.230;2023-07-16T04:16:04;17.00;99.90
8957;DHT22;4513;50.054;8.230;2023-07-16T04:18:31;17.10;99.90
8957;DHT22;4513;50.054;8.230;2023-07-16T04:20:58;17.10;99.90
8957;DHT22;4513;50.054;8.230;2023-07-16T04:23:26;17.00;99.90
8957;DHT22;4513;50.054;8.230;2023-07-16T04:25:53;17.00;99.90
8957;DHT22;4513;50.054;8.230;2023-07-16T04:28:21;17.10;99.90
8957;DHT22;4513;50.054;8.230;2023-07-16T04:30:48;17.10;99.90
8957;DHT22;4513;50.054;8.230;2023-07-16T04:33:15;17.20;99.90
8957;DHT22;4513;50.054;8.230;2023-07-16T04:35:42;17.10;99.90
8957;DHT22;4513;50.054;8.230;2023-07-16T04:38:09;17.30;99.90
8957;DHT22;4513;50.054;8.230;2023-07-16T04:40:37;17.30;99.90
8957;DHT22;4513;50.054;8.230;2023-07-16T04:43:03;17.40;99.90
8957;DHT22;4513;50.054;8.230;2023-07-16T04:45:30;17.50;99.90
8957;DHT22;4513;50.054;8.230;2023-07-16T04:47:57;17.50;99.90
8957;DHT22;4513;50.054;8.230;2023-07-16T04:50:24;17.50;99.90
8957;DHT22;4513;50.054;8.230;2023-07-16T04:52:51;17.50;99.90
8957;DHT22;4513;50.054;8.230;2023-07-16T04:55:18;17.60;99.90
8957;DHT22;4513;50.054;8.230;2023-07-16T04:57:46;17.60;99.90
8957;DHT22;4513;50.054;8.230;2023-07-16T05:00:13;17.60;99.90
8957;DHT22;4513;50.054;8.230;2023-07-16T05:02:40;17.70;99.90
8957;DHT22;4513;50.054;8.230;2023-07-16T05:05:07;17.70;99.90
8957;DHT22;4513;50.054;8.230;2023-07-16T05:07:34;17.70;99.90
8957;DHT22;4513;50.054;8.230;2023-07-16T05:10:01;17.80;99.90
8957;DHT22;4513;50.054;8.230;2023-07-16T05:12:28;17.80;99.90
8957;DHT22;4513;50.054;8.230;2023-07-16T05:14:56;17.80;99.90
8957;DHT22;4513;50.054;8.230;2023-07-16T05:17:23;17.80;99.90
8957;DHT22;4513;50.054;8.230;2023-07-16T05:19:50;17.90;99.90
8957;DHT22;4513;50.054;8.230;2023-07-16T05:22:17;17.90;99.90
8957;DHT22;4513;50.054;8.230;2023-07-16T05:24:43;18.00;99.90
8957;DHT22;4513;50.054;8.230;2023-07-16T05:27:10;18.00;99.90
8957;DHT22;4513;50.054;8.230;2023-07-16T05:29:38;17.90;99.90
8957;DHT22;4513;50.054;8.230;2023-07-16T05:32:06;18.10;99.90
8957;DHT22;4513;50.054;8.230;2023-07-16T05:34:33;18.20;99.90
8957;DHT22;4513;50.054;8.230;2023-07-16T05:37:00;18.20;99.90
8957;DHT22;4513;50.054;8.230;2023-07-16T05:39:27;18.20;99.90
8957;DHT22;4513;50.054;8.230;2023-07-16T05:41:53;18.40;99.90
8957;DHT22;4513;50.054;8.230;2023-07-16T05:44:20;18.40;99.90
8957;DHT22;4513;50.054;8.230;2023-07-16T05:46:47;18.40;99.90
8957;DHT22;4513;50.054;8.230;2023-07-16T05:49:16;18.40;99.90
8957;DHT22;4513;50.054;8.230;2023-07-16T05:51:42;18.40;99.90
8957;DHT22;4513;50.054;8.230;2023-07-16T05:54:09;18.50;99.90
8957;DHT22;4513;50.054;8.230;2023-07-16T05:56:36;18.50;99.90
8957;DHT22;4513;50.054;8.230;2023-07-16T05:59:03;18.60;99.90
8957;DHT22;4513;50.054;8.230;2023-07-16T06:01:29;18.60;99.90
8957;DHT22;4513;50.054;8.230;2023-07-16T06:03:58;18.70;99.90
8957;DHT22;4513;50.054;8.230;2023-07-16T06:06:27;18.60;99.90
8957;DHT22;4513;50.054;8.230;2023-07-16T06:08:54;18.70;99.90
8957;DHT22;4513;50.054;8.230;2023-07-16T06:11:21;18.70;99.90
8957;DHT22;4513;50.054;8.230;2023-07-16T06:13:48;18.70;99.90
8957;DHT22;4513;50.054;8.230;2023-07-16T06:16:15;18.70;99.90
8957;DHT22;4513;50.054;8.230;2023-07-16T06:18:41;18.70;99.90
8957;DHT22;4513;50.054;8.230;2023-07-16T06:21:08;18.80;99.90
8957;DHT22;4513;50.054;8.230;2023-07-16T06:23:36;18.90;99.90
8957;DHT22;4513;50.054;8.230;2023-07-16T06:26:03;18.90;99.90
8957;DHT22;4513;50.054;8.230;2023-07-16T06:28:30;19.00;99.90
8957;DHT22;4513;50.054;8.230;2023-07-16T06:30:57;19.00;99.90
8957;DHT22;4513;50.054;8.230;2023-07-16T06:33:24;19.10;99.90
8957;DHT22;4513;50.054;8.230;2023-07-16T06:35:52;19.10;99.90
8957;DHT22;4513;50.054;8.230;2023-07-16T06:38:19;19.00;99.90
8957;DHT22;4513;50.054;8.230;2023-07-16T06:40:48;19.10;99.90
8957;DHT22;4513;50.054;8.230;2023-07-16T06:43:15;19.20;99.90
8957;DHT22;4513;50.054;8.230;2023-07-16T06:45:42;19.30;99.90
8957;DHT22;4513;50.054;8.230;2023-07-16T06:48:09;19.40;99.90
8957;DHT22;4513;50.054;8.230;2023-07-16T06:50:36;19.70;99.90
8957;DHT22;4513;50.054;8.230;2023-07-16T06:53:03;19.70;99.90
8957;DHT22;4513;50.054;8.230;2023-07-16T06:55:30;19.80;99.90
8957;DHT22;4513;50.054;8.230;2023-07-16T06:57:59;19.80;99.90
8957;DHT22;4513;50.054;8.230;2023-07-16T07:00:26;19.70;99.90
8957;DHT22;4513;50.054;8.230;2023-07-16T07:02:52;19.70;99.90
8957;DHT22;4513;50.054;8.230;2023-07-16T07:05:19;19.70;99.90
8957;DHT22;4513;50.054;8.230;2023-07-16T07:07:46;19.60;99.90
8957;DHT22;4513;50.054;8.230;2023-07-16T07:10:13;19.60;99.90
8957;DHT22;4513;50.054;8.230;2023-07-16T07:12:40;19.50;99.90
8957;DHT22;4513;50.054;8.230;2023-07-16T07:15:09;19.50;99.90
8957;DHT22;4513;50.054;8.230;2023-07-16T07:17:35;19.70;99.90
8957;DHT22;4513;50.054;8.230;2023-07-16T07:20:03;19.70;99.90
8957;DHT22;4513;50.054;8.230;2023-07-16T07:22:30;19.60;99.90
8957;DHT22;4513;50.054;8.230;2023-07-16T07:24:57;19.60;99.90
8957;DHT22;4513;50.054;8.230;2023-07-16T07:27:24;19.70;99.90
8957;DHT22;4513;50.054;8.230;2023-07-16T07:29:51;19.80;99.90
8957;DHT22;4513;50.054;8.230;2023-07-16T07:32:20;19.90;99.90
8957;DHT22;4513;50.054;8.230;2023-07-16T07:34:47;20.00;99.90
8957;DHT22;4513;50.054;8.230;2023-07-16T07:37:14;20.00;99.90
8957;DHT22;4513;50.054;8.230;2023-07-16T07:39:41;20.10;99.90
8957;DHT22;4513;50.054;8.230;2023-07-16T07:42:09;20.10;99.90
8957;DHT22;4513;50.054;8.230;2023-07-16T07:44:37;20.20;99.90
8957;DHT22;4513;50.054;8.230;2023-07-16T07:47:04;20.20;99.90
8957;DHT22;4513;50.054;8.230;2023-07-16T07:49:32;20.20;99.90
8957;DHT22;4513;50.054;8.230;2023-07-16T07:51:59;20.20;99.90
8957;DHT22;4513;50.054;8.230;2023-07-16T07:54:26;20.30;99.90
8957;DHT22;4513;50.054;8.230;2023-07-16T07:56:53;20.30;99.90
8957;DHT22;4513;50.054;8.230;2023-07-16T07:59:20;20.50;99.90
8957;DHT22;4513;50.054;8.230;2023-07-16T08:01:47;20.50;99.90
8957;DHT22;4513;50.054;8.230;2023-07-16T08:04:14;20.70;99.90
8957;DHT22;4513;50.054;8.230;2023-07-16T08:06:42;20.70;99.90
8957;DHT22;4513;50.054;8.230;2023-07-16T08:09:08;20.70;99.90
8957;DHT22;4513;50.054;8.230;2023-07-16T08:11:35;20.90;99.90
8957;DHT22;4513;50.054;8.230;2023-07-16T08:14:02;21.00;99.90
8957;DHT22;4513;50.054;8.230;2023-07-16T08:16:29;20.90;99.90
8957;DHT22;4513;50.054;8.230;2023-07-16T08:18:56;21.10;99.90
8957;DHT22;4513;50.054;8.230;2023-07-16T08:21:22;21.00;99.60
8957;DHT22;4513;50.054;8.230;2023-07-16T08:23:54;21.00;99.10
8957;DHT22;4513;50.054;8.230;2023-07-16T08:26:20;21.00;99.30
8957;DHT22;4513;50.054;8.230;2023-07-16T08:28:47;21.00;99.10
8957;DHT22;4513;50.054;8.230;2023-07-16T08:31:14;21.00;98.50
8957;DHT22;4513;50.054;8.230;2023-07-16T08:33:41;21.10;98.50
8957;DHT22;4513;50.054;8.230;2023-07-16T08:36:08;21.20;98.90
8957;DHT22;4513;50.054;8.230;2023-07-16T08:38:35;21.40;98.40
8957;DHT22;4513;50.054;8.230;2023-07-16T08:41:04;21.40;97.60
8957;DHT22;4513;50.054;8.230;2023-07-16T08:43:33;21.50;96.90
8957;DHT22;4513;50.054;8.230;2023-07-16T08:46:01;21.60;97.40
8957;DHT22;4513;50.054;8.230;2023-07-16T08:48:28;21.70;96.40
8957;DHT22;4513;50.054;8.230;2023-07-16T08:50:56;21.70;95.60
8957;DHT22;4513;50.054;8.230;2023-07-16T08:53:24;21.90;95.90
8957;DHT22;4513;50.054;8.230;2023-07-16T08:55:51;21.90;95.20
8957;DHT22;4513;50.054;8.230;2023-07-16T08:58:23;22.20;94.50
8957;DHT22;4513;50.054;8.230;2023-07-16T09:00:51;22.60;94.10
8957;DHT22;4513;50.054;8.230;2023-07-16T09:03:18;23.40;93.80
8957;DHT22;4513;50.054;8.230;2023-07-16T09:25:32;24.80;92.30
8957;DHT22;4513;50.054;8.230;2023-07-16T09:28:03;26.20;81.70
8957;DHT22;4513;50.054;8.230;2023-07-16T09:35:31;26.40;82.50
8957;DHT22;4513;50.054;8.230;2023-07-16T09:37:57;26.60;76.70
8957;DHT22;4513;50.054;8.230;2023-07-16T09:40:24;26.30;78.70
8957;DHT22;4513;50.054;8.230;2023-07-16T09:42:51;26.10;78.90
8957;DHT22;4513;50.054;8.230;2023-07-16T09:45:19;26.20;80.30
8957;DHT22;4513;50.054;8.230;2023-07-16T09:47:47;26.30;79.50
8957;DHT22;4513;50.054;8.230;2023-07-16T10:00:08;26.40;81.70
8957;DHT22;4513;50.054;8.230;2023-07-16T10:02:37;26.80;76.00
8957;DHT22;4513;50.054;8.230;2023-07-16T10:05:12;26.70;77.50
8957;DHT22;4513;50.054;8.230;2023-07-16T10:07:40;26.50;77.70
8957;DHT22;4513;50.054;8.230;2023-07-16T10:10:10;26.50;79.30
8957;DHT22;4513;50.054;8.230;2023-07-16T10:12:38;26.60;77.00
8957;DHT22;4513;50.054;8.230;2023-07-16T11:02:10;26.30;77.60
8957;DHT22;4513;50.054;8.230;2023-07-16T11:39:36;25.40;82.00
8957;DHT22;4513;50.054;8.230;2023-07-16T11:42:03;25.50;77.80
8957;DHT22;4513;50.054;8.230;2023-07-16T11:44:34;25.60;78.90
8957;DHT22;4513;50.054;8.230;2023-07-16T11:47:01;25.80;77.80
8957;DHT22;4513;50.054;8.230;2023-07-16T11:49:30;25.70;78.40
8957;DHT22;4513;50.054;8.230;2023-07-16T11:54:24;25.80;77.10
8957;DHT22;4513;50.054;8.230;2023-07-16T11:56:51;25.80;76.40
8957;DHT22;4513;50.054;8.230;2023-07-16T12:11:37;25.50;77.40
8957;DHT22;4513;50.054;8.230;2023-07-16T12:53:24;25.70;75.00
8957;DHT22;4513;50.054;8.230;2023-07-16T12:55:51;25.20;71.70
8957;DHT22;4513;50.054;8.230;2023-07-16T12:58:19;25.20;74.10
8957;DHT22;4513;50.054;8.230;2023-07-16T13:00:46;25.30;73.00
8957;DHT22;4513;50.054;8.230;2023-07-16T13:03:13;25.40;76.20
8957;DHT22;4513;50.054;8.230;2023-07-16T13:05:42;25.70;73.90
8957;DHT22;4513;50.054;8.230;2023-07-16T13:08:11;25.80;73.30
8957;DHT22;4513;50.054;8.230;2023-07-16T13:10:39;25.50;72.50
8957;DHT22;4513;50.054;8.230;2023-07-16T13:13:06;25.60;73.90
8957;DHT22;4513;50.054;8.230;2023-07-16T13:15:35;25.60;71.70
8957;DHT22;4513;50.054;8.230;2023-07-16T13:18:02;25.50;71.80
8957;DHT22;4513;50.054;8.230;2023-07-16T13:20:29;25.50;72.30
8957;DHT22;4513;50.054;8.230;2023-07-16T13:22:56;25.20;73.60
8957;DHT22;4513;50.054;8.230;2023-07-16T13:25:23;25.30;74.50
8957;DHT22;4513;50.054;8.230;2023-07-16T13:27:50;25.30;73.30
8957;DHT22;4513;50.054;8.230;2023-07-16T13:30:18;25.50;74.50
8957;DHT22;4513;50.054;8.230;2023-07-16T13:32:47;25.50;74.20
8957;DHT22;4513;50.054;8.230;2023-07-16T13:35:14;25.30;71.90
8957;DHT22;4513;50.054;8.230;2023-07-16T13:37:42;25.40;73.30
8957;DHT22;4513;50.054;8.230;2023-07-16T13:40:09;25.50;73.20
8957;DHT22;4513;50.054;8.230;2023-07-16T13:42:36;25.70;73.50
8957;DHT22;4513;50.054;8.230;2023-07-16T13:45:03;26.00;75.00
8957;DHT22;4513;50.054;8.230;2023-07-16T13:47:30;26.10;73.80
8957;DHT22;4513;50.054;8.230;2023-07-16T13:49:59;26.30;72.80
8957;DHT22;4513;50.054;8.230;2023-07-16T13:52:26;26.20;73.00
8957;DHT22;4513;50.054;8.230;2023-07-16T13:54:52;26.20;71.60
8957;DHT22;4513;50.054;8.230;2023-07-16T13:57:19;26.20;71.50
8957;DHT22;4513;50.054;8.230;2023-07-16T13:59:46;25.90;69.40
8957;DHT22;4513;50.054;8.230;2023-07-16T14:09:36;25.70;71.60
8957;DHT22;4513;50.054;8.230;2023-07-16T14:12:03;26.30;70.70
8957;DHT22;4513;50.054;8.230;2023-07-16T14:14:30;26.20;70.60
8957;DHT22;4513;50.054;8.230;2023-07-16T14:16:57;26.10;72.30
8957;DHT22;4513;50.054;8.230;2023-07-16T14:19:24;26.10;71.20
8957;DHT22;4513;50.054;8.230;2023-07-16T14:41:30;26.10;70.20
8957;DHT22;4513;50.054;8.230;2023-07-16T14:48:51;26.50;70.70
8957;DHT22;4513;50.054;8.230;2023-07-16T14:51:21;26.40;71.80
8957;DHT22;4513;50.054;8.230;2023-07-16T14:53:48;26.20;70.20
8957;DHT22;4513;50.054;8.230;2023-07-16T14:56:16;26.10;70.70
8957;DHT22;4513;50.054;8.230;2023-07-16T15:11:02;25.80;70.50
8957;DHT22;4513;50.054;8.230;2023-07-16T15:13:29;25.80;71.30
8957;DHT22;4513;50.054;8.230;2023-07-16T15:15:57;25.90;73.00
8957;DHT22;4513;50.054;8.230;2023-07-16T15:35:40;26.00;72.20
8957;DHT22;4513;50.054;8.230;2023-07-16T15:40:35;25.90;71.30
8957;DHT22;4513;50.054;8.230;2023-07-16T15:43:01;25.50;71.30
8957;DHT22;4513;50.054;8.230;2023-07-16T15:45:29;25.50;71.60
8957;DHT22;4513;50.054;8.230;2023-07-16T15:47:55;25.60;71.30
8957;DHT22;4513;50.054;8.230;2023-07-16T15:50:26;25.80;71.30
8957;DHT22;4513;50.054;8.230;2023-07-16T15:52:53;25.80;71.70
8957;DHT22;4513;50.054;8.230;2023-07-16T16:05:13;25.90;72.40
8957;DHT22;4513;50.054;8.230;2023-07-16T16:07:44;25.90;71.20
8957;DHT22;4513;50.054;8.230;2023-07-16T16:10:12;25.90;71.80
8957;DHT22;4513;50.054;8.230;2023-07-16T16:12:39;26.00;71.20
8957;DHT22;4513;50.054;8.230;2023-07-16T16:15:07;25.90;71.30
8957;DHT22;4513;50.054;8.230;2023-07-16T16:17:34;25.90;70.90
8957;DHT22;4513;50.054;8.230;2023-07-16T16:20:01;25.80;71.70
8957;DHT22;4513;50.054;8.230;2023-07-16T16:22:30;25.80;72.00
8957;DHT22;4513;50.054;8.230;2023-07-16T16:24:58;25.80;71.80
8957;DHT22;4513;50.054;8.230;2023-07-16T16:27:28;25.80;71.50
8957;DHT22;4513;50.054;8.230;2023-07-16T16:29:55;25.80;71.30
8957;DHT22;4513;50.054;8.230;2023-07-16T16:32:21;25.90;72.20
8957;DHT22;4513;50.054;8.230;2023-07-16T16:34:48;25.80;71.00
8957;DHT22;4513;50.054;8.230;2023-07-16T16:37:15;25.80;72.00
8957;DHT22;4513;50.054;8.230;2023-07-16T16:42:13;25.60;71.90
8957;DHT22;4513;50.054;8.230;2023-07-16T16:44:42;25.50;70.10
8957;DHT22;4513;50.054;8.230;2023-07-16T16:47:09;25.50;70.20
8957;DHT22;4513;50.054;8.230;2023-07-16T16:49:35;25.60;71.80
8957;DHT22;4513;50.054;8.230;2023-07-16T16:52:03;25.60;71.30
8957;DHT22;4513;50.054;8.230;2023-07-16T16:54:29;25.60;70.40
8957;DHT22;4513;50.054;8.230;2023-07-16T16:56:56;25.60;71.50
8957;DHT22;4513;50.054;8.230;2023-07-16T16:59:24;25.60;71.10
8957;DHT22;4513;50.054;8.230;2023-07-16T17:01:51;25.60;71.60
8957;DHT22;4513;50.054;8.230;2023-07-16T17:04:18;25.60;71.60
8957;DHT22;4513;50.054;8.230;2023-07-16T17:06:45;25.50;71.30
8957;DHT22;4513;50.054;8.230;2023-07-16T17:09:11;25.50;72.20
8957;DHT22;4513;50.054;8.230;2023-07-16T17:11:38;25.50;71.10
8957;DHT22;4513;50.054;8.230;2023-07-16T17:14:05;25.50;71.30
8957;DHT22;4513;50.054;8.230;2023-07-16T17:19:00;25.40;71.70
8957;DHT22;4513;50.054;8.230;2023-07-16T17:21:27;25.40;70.30
8957;DHT22;4513;50.054;8.230;2023-07-16T17:23:54;25.30;71.20
8957;DHT22;4513;50.054;8.230;2023-07-16T17:26:21;25.30;72.20
8957;DHT22;4513;50.054;8.230;2023-07-16T18:23:00;25.30;72.00
8957;DHT22;4513;50.054;8.230;2023-07-16T18:25:29;24.90;72.00
8957;DHT22;4513;50.054;8.230;2023-07-16T18:27:56;24.80;71.80
8957;DHT22;4513;50.054;8.230;2023-07-16T18:30:23;24.70;72.70
8957;DHT22;4513;50.054;8.230;2023-07-16T18:32:50;24.60;72.30
8957;DHT22;4513;50.054;8.230;2023-07-16T18:35:17;24.50;73.40
8957;DHT22;4513;50.054;8.230;2023-07-16T18:37:44;24.40;72.90
8957;DHT22;4513;50.054;8.230;2023-07-16T18:40:11;24.30;73.60
8957;DHT22;4513;50.054;8.230;2023-07-16T18:42:39;24.30;75.00
8957;DHT22;4513;50.054;8.230;2023-07-16T18:45:07;24.20;75.30
8957;DHT22;4513;50.054;8.230;2023-07-16T18:47:34;24.10;75.90
8957;DHT22;4513;50.054;8.230;2023-07-16T18:50:01;23.90;75.90
8957;DHT22;4513;50.054;8.230;2023-07-16T18:52:29;23.90;75.70
8957;DHT22;4513;50.054;8.230;2023-07-16T18:54:56;23.90;76.00
8957;DHT22;4513;50.054;8.230;2023-07-16T18:57:23;23.80;79.20
8957;DHT22;4513;50.054;8.230;2023-07-16T18:59:52;23.70;78.10
8957;DHT22;4513;50.054;8.230;2023-07-16T19:02:19;23.70;79.40
8957;DHT22;4513;50.054;8.230;2023-07-16T19:04:46;23.60;79.10
8957;DHT22;4513;50.054;8.230;2023-07-16T19:07:13;23.50;80.90
8957;DHT22;4513;50.054;8.230;2023-07-16T19:09:39;23.40;80.30
8957;DHT22;4513;50.054;8.230;2023-07-16T19:12:07;23.20;80.50
8957;DHT22;4513;50.054;8.230;2023-07-16T19:14:34;23.20;81.80
8957;DHT22;4513;50.054;8.230;2023-07-16T19:17:04;23.10;83.40
8957;DHT22;4513;50.054;8.230;2023-07-16T19:19:38;23.00;83.20
8957;DHT22;4513;50.054;8.230;2023-07-16T19:22:05;22.80;83.40
8957;DHT22;4513;50.054;8.230;2023-07-16T19:24:32;22.70;85.60
8957;DHT22;4513;50.054;8.230;2023-07-16T19:26:59;22.60;84.10
8957;DHT22;4513;50.054;8.230;2023-07-16T19:29:26;22.50;86.10
8957;DHT22;4513;50.054;8.230;2023-07-16T19:31:53;22.40;86.00
8957;DHT22;4513;50.054;8.230;2023-07-16T19:34:21;22.40;85.70
8957;DHT22;4513;50.054;8.230;2023-07-16T19:36:48;22.30;87.70
8957;DHT22;4513;50.054;8.230;2023-07-16T19:39:15;22.30;86.90
8957;DHT22;4513;50.054;8.230;2023-07-16T19:41:41;22.20;87.80
8957;DHT22;4513;50.054;8.230;2023-07-16T19:44:08;22.10;88.60
8957;DHT22;4513;50.054;8.230;2023-07-16T19:46:35;21.90;88.30
8957;DHT22;4513;50.054;8.230;2023-07-16T19:49:02;21.80;88.10
8957;DHT22;4513;50.054;8.230;2023-07-16T19:51:30;21.50;89.10
8957;DHT22;4513;50.054;8.230;2023-07-16T19:53:57;21.40;89.40
8957;DHT22;4513;50.054;8.230;2023-07-16T19:56:24;21.30;90.00
8957;DHT22;4513;50.054;8.230;2023-07-16T19:58:51;21.20;90.20
8957;DHT22;4513;50.054;8.230;2023-07-16T20:01:18;21.10;90.40
8957;DHT22;4513;50.054;8.230;2023-07-16T20:03:45;21.10;90.90
8957;DHT22;4513;50.054;8.230;2023-07-16T20:06:12;20.90;91.30
8957;DHT22;4513;50.054;8.230;2023-07-16T20:08:40;20.80;91.60
8957;DHT22;4513;50.054;8.230;2023-07-16T20:11:10;20.70;92.30
8957;DHT22;4513;50.054;8.230;2023-07-16T20:13:37;20.50;92.90
8957;DHT22;4513;50.054;8.230;2023-07-16T20:16:04;20.50;93.00
8957;DHT22;4513;50.054;8.230;2023-07-16T20:18:31;20.40;93.80
8957;DHT22;4513;50.054;8.230;2023-07-16T20:20:58;20.40;93.90
8957;DHT22;4513;50.054;8.230;2023-07-16T20:23:25;20.30;94.10
8957;DHT22;4513;50.054;8.230;2023-07-16T20:25:54;20.10;94.40
8957;DHT22;4513;50.054;8.230;2023-07-16T20:28:25;20.00;94.60
8957;DHT22;4513;50.054;8.230;2023-07-16T20:30:52;20.00;94.80
8957;DHT22;4513;50.054;8.230;2023-07-16T20:33:19;19.90;95.20
8957;DHT22;4513;50.054;8.230;2023-07-16T20:35:46;19.80;95.60
8957;DHT22;4513;50.054;8.230;2023-07-16T20:38:13;19.60;95.90
8957;DHT22;4513;50.054;8.230;2023-07-16T20:40:39;19.60;96.00
8957;DHT22;4513;50.054;8.230;2023-07-16T20:43:08;19.50;95.90
8957;DHT22;4513;50.054;8.230;2023-07-16T20:45:35;19.40;96.30
8957;DHT22;4513;50.054;8.230;2023-07-16T20:48:04;19.40;97.00
8957;DHT22;4513;50.054;8.230;2023-07-16T20:50:31;19.20;97.00
8957;DHT22;4513;50.054;8.230;2023-07-16T20:52:58;19.10;97.20
8957;DHT22;4513;50.054;8.230;2023-07-16T20:55:27;19.00;97.40
8957;DHT22;4513;50.054;8.230;2023-07-16T20:57:57;18.90;97.70
8957;DHT22;4513;50.054;8.230;2023-07-16T21:00:25;18.80;98.00
8957;DHT22;4513;50.054;8.230;2023-07-16T21:02:58;18.70;97.90
8957;DHT22;4513;50.054;8.230;2023-07-16T21:05:26;18.70;98.00
8957;DHT22;4513;50.054;8.230;2023-07-16T21:07:53;18.70;98.10
8957;DHT22;4513;50.054;8.230;2023-07-16T22:09:35;18.60;98.30